Aérodrome :
LOGIN :

S'inscrire | Disclaimer

   EN    FR    IT 

 










Légende :    VFR   VFR Marginal   IFR   IFR Intensif   IFR Très Intensif
Visi : 
Plafond : 
>= 8 km
>= 3000ft
5 à 8 km
1000 à 3000 ft
1500m à 5 km
500 à 1000 ft
800 à 1500m
200 à 500 ft
< 800m
< 200 ft
Symboles :   Orages  Brouillard  Fortes neiges  Fortes précipitations  Vent > 20 kt
SIGMETs :   Divers  Orages  Givrage  Turbulence  Onde Orograph.  Cendres Volcan.






- Altitude de l'aérodrome : 686 ft


LYKV - Ladevci

DERNIER METAR :
  • 300600Z VRB02KT CAVOK 06/05 Q1015 NOSIG

METARs EXPIRÉS :
  • 300530Z 31005KT CAVOK 04/04 Q1015 NOSIG
  • 300500Z 12003KT 080V170 CAVOK 01/01 Q1015 NOSIG
  • 300430Z 13003KT CAVOK 02/02 Q1015 NOSIG
  • 300400Z VRB02KT CAVOK 01/01 Q1014 NOSIG

TAF TAF LYKV
Valide du 30 à 06h jusqu'au 31 à 06h UTC


300500Z 3006/3106 30006KT 9999 SCT040 TX14/3011Z TN01/3106Z
TEMPO 3011/3018 34016KT



MET'MAP, la Météo Aéronautique d'un coup d'oeil ! - Copyright ORBIFLY Décembre 2007 - Disclaimer

ORBIFLY MET'MAP TEAM :

Programmation & Développement : Alexandra Zaïnal
Sur une idée originale de : Baudouin d'Aumeries
Assistance à la programmation : Marc-Olivier Méhu
Soutien technique & logistique : Manuel Goepfert

Contact : metmap@orbifly.com




SOURCES & CREDITS :

   NOAA